Карточка аэропорта UAKK

Внимание!
Информация на этой странице в стадии наполнения.
Если вы не увидели какой-то информации, или заметили неточность - пожалуйста сообщите нам!
Спасибо!
Команда RU-STAFF
Название аэропортаКараганда
Название аэропорта (англ.)Karaganda
Превышение1768 ft. (538.9 m.)
Координаты49°40.302', 73°20.118'
Высота перехода10000
Эшелон переходаby ATC
Коды ответчика0630-0637, 7220-7227
Зона ОрВДАстана РПИ (UACN)
Данные METARUAKK 230000Z 08003MPS 040V120 9999 BKN016 M21/M24 Q1025 NOSIG RMK QFE721/0961
Проноз погоды (TAF)UAKK 221701Z 2218/2318 08005MPS 5000 -SN BKN020 BKN080 TXM13/2310Z TNM18/2301Z TEMPO 2219/2224 08010MPS 3000 SHSN BKN011 BKN020CB FM230400 16005MPS 9999 SCT030 BKN100 TEMPO 2304/2310 22005MPS 5000 -SN SCT011 BKN020 BECMG 2310/2312 27005MPS
NOTAMshow/hide NOTAM
AWOS   TABLE

Информация о ВПП

ВПП Длина ВПП (м.) Покрытие Курс ВПП Частота ILS
053601Железобетон50109.9
233601Железобетон230111.7

Диспетчерские позиции




Спутниковое изображение